Time;durP1;ratioP1;P1;durP2;ratioP2;P2;SDS_P1;SDS_P2;PMS_P1;PMS_P2;Temp;Humidity;BMP_temperature;BMP_pressure;BME280_temperature;BME280_humidity;BME280_pressure;Samples;Min_cycle;Max_cycle;Signal;HPM_P1;HPM_P2
2023/09/27 00:02:23;;;;;;;6.80;6.10;;;14.90;99.90;;;;;;6131847;23;20375;-76
2023/09/27 00:04:51;;;;;;;6.00;5.40;;;14.90;99.90;;;;;;6132651;23;20422;-76
2023/09/27 00:07:17;;;;;;;8.70;6.40;;;14.90;99.90;;;;;;6110946;23;20374;-76
2023/09/27 00:09:42;;;;;;;9.13;6.23;;;15.00;99.90;;;;;;6159517;23;20181;-77
2023/09/27 00:12:09;;;;;;;6.13;5.53;;;15.00;99.90;;;;;;6109513;23;20158;-75
2023/09/27 00:14:34;;;;;;;7.00;5.50;;;15.00;99.90;;;;;;6133263;23;20225;-76
2023/09/27 00:17:00;;;;;;;5.30;4.77;;;15.00;99.90;;;;;;6133608;23;20371;-74
2023/09/27 00:19:26;;;;;;;5.17;4.67;;;14.90;99.90;;;;;;6133421;23;20215;-75
2023/09/27 00:21:52;;;;;;;5.17;4.50;;;14.80;99.90;;;;;;6159407;23;20132;-76
2023/09/27 00:24:17;;;;;;;4.40;3.80;;;14.80;99.90;;;;;;6158596;23;20175;-77
2023/09/27 00:26:46;;;;;;;4.70;4.30;;;14.70;99.90;;;;;;6159295;23;20217;-76
2023/09/27 00:29:11;;;;;;;3.83;3.50;;;14.70;99.90;;;;;;6133225;23;20363;-76
2023/09/27 00:31:37;;;;;;;5.30;4.80;;;14.60;99.90;;;;;;6133022;23;20151;-76
2023/09/27 00:34:05;;;;;;;6.53;5.90;;;14.60;99.90;;;;;;6132764;23;20170;-77
2023/09/27 00:36:30;;;;;;;5.73;4.90;;;14.60;99.90;;;;;;6160067;23;20774;-76
2023/09/27 00:38:56;;;;;;;7.43;6.73;;;14.60;99.90;;;;;;6134104;23;20490;-76
2023/09/27 00:41:22;;;;;;;9.70;6.97;;;14.60;99.90;;;;;;6132945;23;20487;-75
2023/09/27 00:43:48;;;;;;;7.37;6.70;;;14.60;99.90;;;;;;6158992;23;20216;-77
2023/09/27 00:46:16;;;;;;;7.57;6.87;;;14.60;99.90;;;;;;6159480;23;20674;-77
2023/09/27 00:48:42;;;;;;;7.10;6.40;;;14.70;99.90;;;;;;6173086;23;20186;-75
2023/09/27 00:51:08;;;;;;;7.77;6.27;;;14.60;99.90;;;;;;6159157;23;20363;-75
2023/09/27 00:53:37;;;;;;;7.10;6.23;;;14.60;99.90;;;;;;6132170;23;20501;-76
2023/09/27 00:56:04;;;;;;;6.97;6.27;;;14.60;99.90;;;;;;6133169;23;20143;-76
2023/09/27 00:58:34;;;;;;;5.73;5.20;;;14.60;99.90;;;;;;6158728;23;20375;-76
2023/09/27 01:01:00;;;;;;;5.47;4.73;;;14.50;99.90;;;;;;6133326;23;20386;-77
2023/09/27 01:03:26;;;;;;;4.93;4.50;;;14.50;99.90;;;;;;6156845;23;20485;-75
2023/09/27 01:05:52;;;;;;;5.40;4.90;;;14.50;99.90;;;;;;6159020;23;20736;-78
2023/09/27 01:08:18;;;;;;;5.03;4.50;;;14.40;99.90;;;;;;6159538;23;20186;-77
2023/09/27 01:10:45;;;;;;;4.60;4.20;;;14.40;99.90;;;;;;6135793;23;20423;-76
2023/09/27 01:13:10;;;;;;;3.87;3.50;;;14.30;99.90;;;;;;6158328;23;20182;-76
2023/09/27 01:15:36;;;;;;;5.80;4.87;;;14.30;99.90;;;;;;6159148;23;20371;-76
2023/09/27 01:18:02;;;;;;;5.23;4.10;;;14.30;99.90;;;;;;6160771;23;20150;-75
2023/09/27 01:20:30;;;;;;;4.50;4.10;;;14.30;99.90;;;;;;6158745;23;20134;-75
2023/09/27 01:23:03;;;;;;;8.53;4.17;;;14.20;99.90;;;;;;6158526;23;20831;-76
2023/09/27 01:25:32;;;;;;;4.40;3.73;;;14.20;99.90;;;;;;6132580;23;20422;-76
2023/09/27 01:28:05;;;;;;;4.00;3.60;;;14.10;99.90;;;;;;6133157;23;20486;-76
2023/09/27 01:30:32;;;;;;;5.10;4.70;;;14.10;99.90;;;;;;6134121;23;20772;-76
2023/09/27 01:33:05;;;;;;;5.20;4.70;;;14.10;99.90;;;;;;6158628;23;20386;-75
2023/09/27 01:35:34;;;;;;;5.40;4.90;;;14.10;99.90;;;;;;6132769;23;20402;-76
2023/09/27 01:38:00;;;;;;;4.80;4.30;;;14.00;99.90;;;;;;6132488;23;20395;-75
2023/09/27 01:40:30;;;;;;;5.60;4.60;;;14.00;99.90;;;;;;6158304;23;20363;-75
2023/09/27 01:43:02;;;;;;;7.63;6.80;;;14.00;99.90;;;;;;6106958;23;20409;-75
2023/09/27 01:45:29;;;;;;;9.03;8.13;;;14.00;99.90;;;;;;6172881;23;20411;-74
2023/09/27 01:47:57;;;;;;;9.63;8.63;;;14.00;99.90;;;;;;6127153;23;20360;-76
2023/09/27 01:50:33;;;;;;;8.87;7.97;;;14.00;99.90;;;;;;6153967;23;20392;-75
2023/09/27 01:53:05;;;;;;;7.50;6.63;;;14.00;99.90;;;;;;6126998;23;20390;-75
2023/09/27 01:55:32;;;;;;;7.80;5.70;;;14.00;99.90;;;;;;6152828;23;20437;-76
2023/09/27 01:57:59;;;;;;;5.93;5.30;;;14.00;99.90;;;;;;6105355;23;20442;-76
2023/09/27 02:00:26;;;;;;;5.53;5.03;;;13.90;99.90;;;;;;6127996;23;20399;-76
2023/09/27 02:03:00;;;;;;;5.47;4.97;;;13.80;99.90;;;;;;6140696;23;20858;-76
2023/09/27 02:05:27;;;;;;;6.63;4.73;;;13.80;99.90;;;;;;6162775;23;20438;-76
2023/09/27 02:07:53;;;;;;;6.73;6.03;;;13.80;99.90;;;;;;6162253;23;20359;-75
2023/09/27 02:10:20;;;;;;;8.10;7.30;;;13.80;99.90;;;;;;6136837;23;20779;-75
2023/09/27 02:12:45;;;;;;;7.83;7.03;;;13.80;99.90;;;;;;6135761;23;20432;-75
2023/09/27 02:15:13;;;;;;;7.73;6.97;;;13.80;99.90;;;;;;6132555;23;20836;-75
2023/09/27 02:17:40;;;;;;;6.27;5.67;;;13.80;99.90;;;;;;6132448;23;20644;-76
2023/09/27 02:20:10;;;;;;;5.87;5.27;;;13.80;99.90;;;;;;6108451;23;20692;-75
2023/09/27 02:22:37;;;;;;;7.70;6.87;;;13.70;99.90;;;;;;6157818;23;20831;-76
2023/09/27 02:25:05;;;;;;;6.47;5.87;;;13.70;99.90;;;;;;6131498;23;20441;-77
2023/09/27 02:27:31;;;;;;;7.43;6.77;;;13.60;99.90;;;;;;6157935;23;20770;-75
2023/09/27 02:29:57;;;;;;;6.67;5.97;;;13.70;99.90;;;;;;6133136;23;20371;-75
2023/09/27 02:32:23;;;;;;;10.30;6.87;;;13.70;99.90;;;;;;6157782;23;20492;-76
2023/09/27 02:34:49;;;;;;;6.90;6.20;;;13.70;99.90;;;;;;6156078;23;20405;-75
2023/09/27 02:37:15;;;;;;;8.00;7.13;;;13.60;99.90;;;;;;6132226;23;20147;-76
2023/09/27 02:39:42;;;;;;;8.93;8.03;;;13.60;99.90;;;;;;6158192;23;20140;-75
2023/09/27 02:42:09;;;;;;;10.10;8.27;;;13.60;99.90;;;;;;6132340;23;20407;-75
2023/09/27 02:44:35;;;;;;;9.73;8.57;;;13.60;99.90;;;;;;6132449;23;20575;-75
2023/09/27 02:47:00;;;;;;;10.73;9.47;;;13.70;99.90;;;;;;6159435;23;20362;-75
2023/09/27 02:49:29;;;;;;;10.57;9.47;;;13.70;99.90;;;;;;6133902;23;20373;-75
2023/09/27 02:51:55;;;;;;;9.43;8.47;;;13.70;99.90;;;;;;6134524;23;20150;-75
2023/09/27 02:54:21;;;;;;;10.47;8.90;;;13.70;99.90;;;;;;6158059;23;20652;-76
2023/09/27 02:56:47;;;;;;;10.97;9.90;;;13.70;99.90;;;;;;6159073;23;20145;-76
2023/09/27 02:59:12;;;;;;;9.80;8.80;;;13.70;99.90;;;;;;6159421;23;20445;-75
2023/09/27 03:01:40;;;;;;;11.40;10.20;;;13.80;99.90;;;;;;6133283;23;20154;-76
2023/09/27 03:04:10;;;;;;;10.63;9.40;;;13.80;99.90;;;;;;6138527;23;20188;-74
2023/09/27 03:06:37;;;;;;;13.07;10.10;;;13.80;99.90;;;;;;6111817;23;20909;-75
2023/09/27 03:09:08;;;;;;;10.30;8.77;;;13.80;99.90;;;;;;6159598;23;20365;-77
2023/09/27 03:11:34;;;;;;;11.30;10.20;;;13.80;99.90;;;;;;6133254;23;20880;-76
2023/09/27 03:14:00;;;;;;;12.10;10.87;;;13.80;99.90;;;;;;6134099;23;20390;-76
2023/09/27 03:16:26;;;;;;;10.90;9.63;;;13.80;99.90;;;;;;6110181;23;20730;-76
2023/09/27 03:18:54;;;;;;;11.03;9.23;;;13.80;99.90;;;;;;6132432;23;20370;-75
2023/09/27 03:21:20;;;;;;;10.07;9.07;;;13.80;99.90;;;;;;6157099;23;20155;-76
2023/09/27 03:23:46;;;;;;;9.33;8.43;;;13.70;99.90;;;;;;6132489;23;20430;-76
2023/09/27 03:26:12;;;;;;;9.37;8.47;;;13.70;99.90;;;;;;6157436;23;20678;-76
2023/09/27 03:28:41;;;;;;;9.60;7.20;;;13.70;99.90;;;;;;6157453;23;20157;-76
2023/09/27 03:31:07;;;;;;;8.70;7.90;;;13.60;99.90;;;;;;6132946;23;20367;-74
2023/09/27 03:33:33;;;;;;;8.90;8.03;;;13.50;99.90;;;;;;6157786;23;20877;-75
2023/09/27 03:36:02;;;;;;;9.30;8.50;;;13.50;99.90;;;;;;6132486;23;20575;-75
2023/09/27 03:38:28;;;;;;;10.27;9.13;;;13.50;99.90;;;;;;6133124;23;20157;-75
2023/09/27 03:40:54;;;;;;;10.17;8.57;;;13.40;99.90;;;;;;6131347;23;20784;-75
2023/09/27 03:43:20;;;;;;;9.60;8.50;;;13.40;99.90;;;;;;6134103;23;20474;-76
2023/09/27 03:45:45;;;;;;;7.73;7.03;;;13.40;99.90;;;;;;6158725;23;20198;-76
2023/09/27 03:48:11;;;;;;;9.73;8.80;;;13.40;99.90;;;;;;6131992;23;20144;-76
2023/09/27 03:50:36;;;;;;;10.17;8.10;;;13.40;99.90;;;;;;6108474;23;20242;-76
2023/09/27 03:53:07;;;;;;;10.50;9.40;;;13.30;99.90;;;;;;6113405;23;20155;-75
2023/09/27 03:55:33;;;;;;;8.70;7.90;;;13.30;99.90;;;;;;6177074;23;20150;-75
2023/09/27 03:57:59;;;;;;;8.27;7.53;;;13.30;99.90;;;;;;6125689;23;20386;-76
2023/09/27 04:00:24;;;;;;;7.73;6.63;;;13.30;99.90;;;;;;6124789;23;20151;-76
2023/09/27 04:02:50;;;;;;;8.43;7.57;;;13.30;99.90;;;;;;6112380;23;20397;-77
2023/09/27 04:05:18;;;;;;;11.30;10.20;;;13.30;99.90;;;;;;6134057;23;20418;-75
2023/09/27 04:07:44;;;;;;;10.67;9.10;;;13.30;99.90;;;;;;6131385;23;20142;-76
2023/09/27 04:10:10;;;;;;;11.10;9.10;;;13.30;99.90;;;;;;6132051;23;20480;-75
2023/09/27 04:12:36;;;;;;;12.53;11.23;;;13.30;99.90;;;;;;6132284;23;20454;-77
2023/09/27 04:15:02;;;;;;;9.53;8.60;;;13.20;99.90;;;;;;6158610;23;20397;-77
2023/09/27 04:17:28;;;;;;;10.67;9.57;;;13.30;99.90;;;;;;6139458;23;20450;-76
2023/09/27 04:19:55;;;;;;;12.17;10.47;;;13.30;99.90;;;;;;6157235;23;20439;-75
2023/09/27 04:22:20;;;;;;;10.47;9.40;;;13.30;99.90;;;;;;6158302;23;20203;-76
2023/09/27 04:24:46;;;;;;;9.20;8.30;;;13.20;99.90;;;;;;6158419;23;20453;-76
2023/09/27 04:27:12;;;;;;;9.13;7.90;;;13.20;99.90;;;;;;6158497;23;20212;-76
2023/09/27 04:29:39;;;;;;;8.50;7.70;;;13.20;99.90;;;;;;6167907;23;20187;-75
2023/09/27 04:32:27;;;;;;;10.00;8.67;;;13.20;99.90;;;;;;6128384;23;20124;-76
2023/09/27 04:34:57;;;;;;;9.80;8.80;;;13.10;99.90;;;;;;6110439;23;20402;-75
2023/09/27 04:37:47;;;;;;;9.13;8.07;;;13.10;99.90;;;;;;6131504;23;20370;-74
2023/09/27 04:40:34;;;;;;;9.00;8.10;;;13.10;99.90;;;;;;6155380;23;20370;-76
2023/09/27 04:43:06;;;;;;;9.13;8.20;;;13.00;99.90;;;;;;6107322;23;20421;-77
2023/09/27 04:45:39;;;;;;;8.80;7.90;;;13.00;99.90;;;;;;6129482;23;20418;-77
2023/09/27 04:48:07;;;;;;;9.73;8.73;;;13.00;99.90;;;;;;6063565;23;20389;-75
2023/09/27 04:50:59;;;;;;;10.70;7.97;;;12.90;99.90;;;;;;5988450;23;20412;-77
2023/09/27 04:53:38;;;;;;;7.43;6.73;;;12.90;99.90;;;;;;5993732;23;20489;-76
2023/09/27 04:57:25;;;;;;;8.17;6.73;;;12.90;99.90;;;;;;6034002;23;20395;-76
2023/09/27 05:00:19;;;;;;;9.00;7.37;;;12.80;99.90;;;;;;5940853;24;20396;-77
2023/09/27 05:06:26;;;;;;;10.33;8.63;;;12.80;99.90;;;;;;6075391;23;20448;-77
2023/09/27 05:09:31;;;;;;;8.80;7.90;;;12.80;99.90;;;;;;6011141;23;20414;-76
2023/09/27 05:12:00;;;;;;;8.17;7.07;;;12.80;99.90;;;;;;6085743;23;20365;-77
2023/09/27 05:17:30;;;;;;;9.90;7.90;;;12.70;99.90;;;;;;6138306;23;20469;-77
2023/09/27 05:20:18;;;;;;;9.23;7.83;;;12.70;99.90;;;;;;6124621;23;20395;-77
2023/09/27 05:39:44;;;;;;;12.10;10.90;;;12.90;99.90;;;;;;6133498;23;20441;-78
2023/09/27 05:43:01;;;;;;;10.93;9.83;;;13.00;99.90;;;;;;6125686;23;20434;-79
2023/09/27 05:45:30;;;;;;;10.73;9.63;;;13.10;99.90;;;;;;6098321;23;20448;-78
2023/09/27 05:48:18;;;;;;;11.27;10.17;;;13.20;99.90;;;;;;6050357;23;20445;-78
2023/09/27 05:51:35;;;;;;;11.30;10.30;;;13.30;99.90;;;;;;6073894;23;20459;-79
2023/09/27 06:00:56;;;;;;;18.67;10.67;;;13.50;99.90;;;;;;6139798;23;20497;-79
2023/09/27 06:03:56;;;;;;;9.03;7.77;;;13.60;99.90;;;;;;6176558;23;20391;-77
2023/09/27 06:24:58;;;;;;;9.07;8.17;;;14.50;99.90;;;;;;6101846;23;20445;-78
2023/09/27 06:33:52;;;;;;;6.97;6.37;;;14.70;99.90;;;;;;6141959;23;20489;-76
2023/09/27 06:36:20;;;;;;;6.57;5.97;;;14.70;99.90;;;;;;6148384;23;20383;-77
2023/09/27 06:38:49;;;;;;;6.27;5.60;;;14.70;99.90;;;;;;6148822;23;20146;-77
2023/09/27 06:41:21;;;;;;;7.47;6.60;;;14.70;99.90;;;;;;6122384;23;20417;-79
2023/09/27 06:43:47;;;;;;;7.57;6.77;;;14.70;99.90;;;;;;6148475;23;20407;-78
2023/09/27 06:46:15;;;;;;;7.37;6.67;;;14.70;99.90;;;;;;6149000;23;20395;-78
2023/09/27 06:48:41;;;;;;;8.63;7.83;;;14.80;99.90;;;;;;6149182;23;20399;-77
2023/09/27 06:59:43;;;;;;;12.47;8.80;;;15.00;99.90;;;;;;6092331;23;20445;-78
2023/09/27 07:02:11;;;;;;;9.50;8.33;;;15.00;99.90;;;;;;6046901;23;20385;-77
2023/09/27 07:08:15;;;;;;;9.67;7.90;;;15.00;99.90;;;;;;6094488;23;20373;-79
2023/09/27 07:33:18;;;;;;;6.43;5.83;;;15.60;99.90;;;;;;6094865;23;20515;-77
2023/09/27 07:35:58;;;;;;;5.30;4.80;;;15.70;99.90;;;;;;6070633;23;20374;-76
2023/09/27 07:38:48;;;;;;;5.80;4.77;;;15.90;99.90;;;;;;6047437;23;20394;-78
2023/09/27 07:42:00;;;;;;;6.20;5.67;;;16.00;99.90;;;;;;6045358;23;20456;-79
2023/09/27 07:44:32;;;;;;;6.73;6.03;;;16.10;99.90;;;;;;6128088;23;20427;-78
2023/09/27 07:53:32;;;;;;;4.23;3.93;;;16.30;99.90;;;;;;6110446;23;20453;-78
2023/09/27 07:55:59;;;;;;;5.30;4.80;;;16.30;99.90;;;;;;6083722;23;20471;-77
2023/09/27 07:58:41;;;;;;;4.80;4.30;;;16.40;99.90;;;;;;6102506;23;20395;-76
2023/09/27 08:01:22;;;;;;;7.47;6.30;;;16.40;99.90;;;;;;6128807;23;20379;-77
2023/09/27 08:04:05;;;;;;;5.60;5.10;;;16.50;99.90;;;;;;6104480;23;20413;-78
2023/09/27 08:06:59;;;;;;;11.87;7.80;;;16.60;99.90;;;;;;6126887;23;20395;-78
2023/09/27 08:18:03;;;;;;;7.63;6.93;;;16.70;99.90;;;;;;6180350;23;20928;-78
2023/09/27 08:26:39;;;;;;;7.90;6.40;;;17.00;99.90;;;;;;6125735;23;20480;-77
2023/09/27 08:32:33;;;;;;;10.57;7.70;;;17.20;99.90;;;;;;6035170;23;20408;-78
2023/09/27 08:35:52;;;;;;;7.57;6.80;;;17.30;99.90;;;;;;6013293;23;20394;-78
2023/09/27 08:39:14;;;;;;;7.10;6.40;;;17.50;99.90;;;;;;5915099;24;20417;-78
2023/09/27 08:44:55;;;;;;;6.70;5.57;;;17.80;99.90;;;;;;6092370;23;20487;-77
2023/09/27 08:47:48;;;;;;;7.07;6.37;;;18.00;99.90;;;;;;6013083;23;20407;-78
2023/09/27 08:53:15;;;;;;;7.70;6.13;;;18.40;99.90;;;;;;6117833;23;20438;-79
2023/09/27 08:55:51;;;;;;;6.97;6.30;;;18.60;99.90;;;;;;6127639;23;20441;-78
2023/09/27 08:58:27;;;;;;;12.10;7.60;;;18.60;99.90;;;;;;6129329;23;20392;-77
2023/09/27 09:01:50;;;;;;;7.23;5.80;;;18.70;99.90;;;;;;6127504;23;20391;-77
2023/09/27 09:04:42;;;;;;;5.23;4.80;;;18.60;99.90;;;;;;6151568;23;20400;-79
2023/09/27 09:12:42;;;;;;;5.83;5.33;;;18.50;99.90;;;;;;6116771;23;20483;-77
2023/09/27 09:15:15;;;;;;;5.10;4.60;;;18.60;99.90;;;;;;6117375;23;20407;-76
2023/09/27 09:17:48;;;;;;;7.17;4.83;;;18.60;99.90;;;;;;6094614;23;20801;-75
2023/09/27 09:20:28;;;;;;;5.87;5.17;;;18.80;99.90;;;;;;6118967;23;20388;-74
2023/09/27 09:23:00;;;;;;;10.00;6.63;;;18.90;99.90;;;;;;6113263;23;20373;-74
2023/09/27 09:25:28;;;;;;;7.07;6.37;;;19.10;99.90;;;;;;6114527;23;20481;-74
2023/09/27 09:28:07;;;;;;;8.93;6.47;;;19.10;99.90;;;;;;6115994;23;20384;-73
2023/09/27 09:30:40;;;;;;;8.27;6.37;;;19.10;99.90;;;;;;6092882;23;20392;-73
2023/09/27 09:33:16;;;;;;;7.90;6.37;;;19.10;99.90;;;;;;6114987;23;20397;-74
2023/09/27 09:35:42;;;;;;;7.17;6.03;;;19.10;99.90;;;;;;6090382;23;20376;-73
2023/09/27 09:38:08;;;;;;;6.57;5.87;;;19.10;99.90;;;;;;6115357;23;20369;-71
2023/09/27 09:40:56;;;;;;;7.33;6.20;;;19.20;99.90;;;;;;6114575;23;20176;-73
2023/09/27 09:43:54;;;;;;;7.73;6.27;;;19.30;99.90;;;;;;6114670;23;20416;-73
2023/09/27 09:46:24;;;;;;;9.03;5.10;;;19.30;99.90;;;;;;6115851;23;20523;-72
2023/09/27 09:48:49;;;;;;;6.73;5.40;;;19.30;99.90;;;;;;6115583;23;20369;-72
2023/09/27 09:51:22;;;;;;;5.70;5.20;;;19.40;99.90;;;;;;6115074;23;20380;-72
2023/09/27 10:04:05;;;;;;;5.23;4.47;;;19.60;99.90;;;;;;6116145;23;20429;-78
2023/09/27 12:56:57;;;;;;;5.30;2.70;;;24.30;60.60;;;;;;6123854;23;20479;-76
2023/09/27 12:59:24;;;;;;;3.23;2.70;;;24.40;60.50;;;;;;6172915;23;20413;-74
2023/09/27 13:01:49;;;;;;;4.37;3.17;;;24.60;61.00;;;;;;6126285;23;20379;-75
2023/09/27 13:04:18;;;;;;;3.17;2.60;;;24.60;61.90;;;;;;6144254;23;20431;-75
2023/09/27 13:06:44;;;;;;;4.03;2.90;;;24.70;63.60;;;;;;6095282;23;20420;-76
2023/09/27 13:09:10;;;;;;;5.43;2.10;;;25.10;65.40;;;;;;6099535;23;20379;-78
2023/09/27 16:42:33;;;;;;;5.33;3.17;;;22.50;68.70;;;;;;6008507;24;20387;-78
2023/09/27 16:45:02;;;;;;;3.70;2.63;;;22.40;69.10;;;;;;6007692;23;20420;-79
2023/09/27 16:47:28;;;;;;;3.70;3.10;;;22.40;69.50;;;;;;5996361;23;20437;-78
2023/09/27 16:49:54;;;;;;;4.50;2.87;;;22.30;69.70;;;;;;6074852;23;20396;-79
2023/09/27 16:52:20;;;;;;;4.17;3.47;;;22.30;70.30;;;;;;6074486;23;20447;-78
2023/09/27 16:54:47;;;;;;;5.20;3.33;;;22.20;70.70;;;;;;6091042;23;20220;-78
2023/09/27 16:57:14;;;;;;;4.03;3.00;;;22.20;71.20;;;;;;6096216;23;20396;-78
2023/09/27 16:59:41;;;;;;;5.67;3.13;;;22.20;72.50;;;;;;6118689;23;20399;-79
2023/09/27 17:02:07;;;;;;;3.90;3.17;;;22.10;71.80;;;;;;6120233;23;20452;-79
2023/09/27 17:04:38;;;;;;;4.63;3.37;;;22.10;72.30;;;;;;6105607;23;20435;-78
2023/09/27 17:07:05;;;;;;;6.33;5.00;;;22.00;72.60;;;;;;6121172;23;20149;-79
2023/09/27 17:09:38;;;;;;;4.97;4.10;;;22.00;73.20;;;;;;6097843;23;20440;-79
2023/09/27 17:12:10;;;;;;;4.40;3.63;;;21.90;73.60;;;;;;6098796;23;20427;-78
2023/09/27 17:14:37;;;;;;;4.93;3.33;;;21.80;74.10;;;;;;6097783;23;20439;-79
2023/09/27 17:17:04;;;;;;;4.33;3.93;;;21.70;74.60;;;;;;6122389;23;20389;-78
2023/09/27 17:19:32;;;;;;;2.90;2.47;;;21.60;75.20;;;;;;6121029;23;20380;-79
2023/09/27 17:21:58;;;;;;;4.23;3.70;;;21.40;75.80;;;;;;6120600;23;20136;-78
2023/09/27 17:24:24;;;;;;;4.40;4.00;;;21.30;76.70;;;;;;6120193;23;20482;-79
2023/09/27 17:26:51;;;;;;;3.93;3.30;;;21.30;77.30;;;;;;6096408;23;20468;-79
2023/09/27 17:31:53;;;;;;;3.73;3.37;;;21.20;77.60;;;;;;6120337;23;20444;-79
2023/09/27 17:34:19;;;;;;;4.67;3.40;;;21.20;78.00;;;;;;6121009;23;20404;-78
2023/09/27 17:36:45;;;;;;;4.17;3.27;;;21.10;78.10;;;;;;6119815;23;20383;-79
2023/09/27 17:39:14;;;;;;;5.97;4.40;;;21.10;78.40;;;;;;6098686;23;20232;-78
2023/09/27 17:50:09;;;;;;;3.97;3.07;;;20.90;79.70;;;;;;6120249;23;20436;-79
2023/09/27 17:52:45;;;;;;;5.33;3.10;;;20.90;80.10;;;;;;6123741;23;20381;-78
2023/09/27 17:55:11;;;;;;;3.53;3.00;;;20.80;80.60;;;;;;6072733;23;20457;-77
2023/09/27 17:57:51;;;;;;;3.47;2.97;;;20.80;81.00;;;;;;6073824;23;20406;-78
2023/09/27 18:00:19;;;;;;;3.90;3.50;;;20.70;81.60;;;;;;6072613;23;20389;-77
2023/09/27 18:02:45;;;;;;;3.20;2.90;;;20.70;82.50;;;;;;6071509;23;20377;-78
2023/09/27 18:05:14;;;;;;;3.20;2.90;;;20.60;83.00;;;;;;6047679;23;20401;-79
2023/09/27 18:07:40;;;;;;;2.83;2.40;;;20.50;83.70;;;;;;6072249;23;20377;-78
2023/09/27 18:10:19;;;;;;;3.33;2.60;;;20.50;84.70;;;;;;6009282;23;20391;-76
2023/09/27 18:12:50;;;;;;;2.73;2.43;;;20.40;85.80;;;;;;6010172;23;20374;-78
2023/09/27 18:15:21;;;;;;;3.40;3.10;;;20.30;86.70;;;;;;6036077;23;20442;-78
2023/09/27 18:17:47;;;;;;;3.97;3.03;;;20.20;87.90;;;;;;6104346;23;20459;-78
2023/09/27 18:20:13;;;;;;;3.60;3.07;;;20.20;89.10;;;;;;6125151;23;20380;-78
2023/09/27 18:26:02;;;;;;;3.20;2.90;;;20.00;90.80;;;;;;6119739;23;20516;-78
2023/09/27 18:28:28;;;;;;;3.37;2.93;;;19.90;91.50;;;;;;6097776;23;20380;-77
2023/09/27 18:30:58;;;;;;;3.13;2.50;;;19.80;92.30;;;;;;6098341;23;20369;-78
2023/09/27 18:33:26;;;;;;;2.97;2.57;;;19.70;93.10;;;;;;6121728;23;20404;-78
2023/09/27 18:35:53;;;;;;;2.40;2.20;;;19.60;94.20;;;;;;6124300;23;20348;-78
2023/09/27 18:38:28;;;;;;;3.70;2.60;;;19.50;95.30;;;;;;6121450;23;20368;-78
2023/09/27 18:40:55;;;;;;;2.80;2.50;;;19.40;96.30;;;;;;6097433;23;20391;-77
2023/09/27 18:46:19;;;;;;;4.53;3.60;;;19.30;98.70;;;;;;6122760;23;20427;-78
2023/09/27 18:48:49;;;;;;;3.20;2.90;;;19.30;99.70;;;;;;6071136;23;20373;-78
2023/09/27 18:51:21;;;;;;;4.60;2.90;;;19.20;99.90;;;;;;6073986;23;20359;-79
2023/09/27 18:53:55;;;;;;;3.63;3.20;;;19.20;99.90;;;;;;6073415;23;20511;-78
2023/09/27 18:56:22;;;;;;;2.87;2.57;;;19.20;99.90;;;;;;6030199;23;20384;-78
2023/09/27 18:58:48;;;;;;;3.83;3.13;;;19.20;99.90;;;;;;6100713;23;20353;-78
2023/09/27 19:01:21;;;;;;;3.30;2.87;;;19.10;99.90;;;;;;6103341;23;20373;-78
2023/09/27 19:03:47;;;;;;;3.40;3.10;;;19.10;99.90;;;;;;6053725;23;20414;-77
2023/09/27 19:06:14;;;;;;;3.50;3.20;;;19.00;99.90;;;;;;6076558;23;20459;-78
2023/09/27 19:08:40;;;;;;;3.70;3.40;;;19.00;99.90;;;;;;6075528;23;20145;-79
2023/09/27 19:11:06;;;;;;;3.60;3.23;;;19.00;99.90;;;;;;6075910;23;20388;-77
2023/09/27 19:13:33;;;;;;;2.87;2.63;;;19.00;99.90;;;;;;6140163;23;20427;-78
2023/09/27 19:16:05;;;;;;;4.90;3.73;;;18.90;99.90;;;;;;6184093;23;20371;-77
2023/09/27 19:18:36;;;;;;;5.53;4.20;;;18.90;99.90;;;;;;6159936;23;20390;-79
2023/09/27 19:21:03;;;;;;;5.83;4.00;;;18.80;99.90;;;;;;6182541;23;20391;-76
2023/09/27 19:23:32;;;;;;;5.00;4.00;;;18.90;99.90;;;;;;6178953;23;20379;-76
2023/09/27 19:28:48;;;;;;;4.20;3.70;;;18.90;99.90;;;;;;6122145;23;20475;-78
2023/09/27 19:31:30;;;;;;;7.30;5.07;;;18.90;99.90;;;;;;6098403;23;20384;-77
2023/09/27 19:34:00;;;;;;;5.90;5.03;;;18.90;99.90;;;;;;6074577;23;20416;-78
2023/09/27 19:36:27;;;;;;;5.40;4.60;;;19.00;99.90;;;;;;6073852;23;20493;-78
2023/09/27 19:38:53;;;;;;;4.70;4.00;;;18.90;99.90;;;;;;6070674;23;20377;-77
2023/09/27 19:41:24;;;;;;;5.73;4.40;;;19.00;99.90;;;;;;6069367;23;20383;-77
2023/09/27 19:43:51;;;;;;;5.07;4.57;;;19.00;99.90;;;;;;6121294;23;20457;-77
2023/09/27 19:46:27;;;;;;;4.37;3.73;;;19.00;99.90;;;;;;6093866;23;20420;-77
2023/09/27 19:48:53;;;;;;;4.23;3.60;;;19.00;99.90;;;;;;6094553;23;20782;-78
2023/09/27 19:51:24;;;;;;;3.83;3.30;;;19.00;99.90;;;;;;6048557;23;20373;-75
2023/09/27 19:53:51;;;;;;;3.43;3.10;;;18.90;99.90;;;;;;6072722;23;20465;-77
2023/09/27 19:56:17;;;;;;;6.63;3.57;;;18.90;99.90;;;;;;6097582;23;20373;-78
2023/09/27 19:58:43;;;;;;;4.43;4.03;;;18.80;99.90;;;;;;6093449;23;20411;-78
2023/09/27 20:01:09;;;;;;;4.23;3.70;;;18.80;99.90;;;;;;6070277;23;20376;-77
2023/09/27 20:03:36;;;;;;;6.90;4.40;;;18.80;99.90;;;;;;6048110;23;20172;-77
2023/09/27 20:06:03;;;;;;;5.53;4.43;;;18.80;99.90;;;;;;6095943;23;20423;-78
2023/09/27 20:08:29;;;;;;;4.33;3.63;;;18.80;99.90;;;;;;6071643;23;20341;-77
2023/09/27 20:10:57;;;;;;;4.90;3.70;;;18.80;99.90;;;;;;6050562;23;20192;-78
2023/09/27 20:13:28;;;;;;;4.33;3.93;;;18.80;99.90;;;;;;6097886;23;20475;-78
2023/09/27 20:16:07;;;;;;;5.07;4.57;;;18.70;99.90;;;;;;6121425;23;20427;-77
2023/09/27 20:18:33;;;;;;;4.60;4.20;;;18.60;99.90;;;;;;6071155;23;20400;-76
2023/09/27 20:20:59;;;;;;;6.07;4.37;;;18.60;99.90;;;;;;6098044;23;20380;-76
2023/09/27 20:23:24;;;;;;;5.00;4.20;;;18.60;99.90;;;;;;6095441;23;20396;-77
2023/09/27 20:25:50;;;;;;;4.27;3.87;;;18.50;99.90;;;;;;6046997;23;20180;-78
2023/09/27 20:28:16;;;;;;;4.40;3.77;;;18.50;99.90;;;;;;6108811;23;20164;-77
2023/09/27 20:30:50;;;;;;;5.80;5.20;;;18.50;99.90;;;;;;6095176;23;20208;-75
2023/09/27 20:33:17;;;;;;;5.67;4.77;;;18.50;99.90;;;;;;6096495;23;20187;-78
2023/09/27 20:35:43;;;;;;;4.47;4.07;;;18.50;99.90;;;;;;6093744;23;20407;-78
2023/09/27 20:38:09;;;;;;;5.20;4.50;;;18.40;99.90;;;;;;6094000;23;20397;-76
2023/09/27 20:40:36;;;;;;;4.07;3.77;;;18.40;99.90;;;;;;6094909;23;20384;-76
2023/09/27 20:43:11;;;;;;;7.93;4.17;;;18.50;99.90;;;;;;6116957;23;20203;-75
2023/09/27 20:45:37;;;;;;;5.47;4.93;;;18.50;99.90;;;;;;6092064;23;20417;-76
2023/09/27 20:48:03;;;;;;;6.17;5.60;;;18.50;99.90;;;;;;6117255;23;20376;-76
2023/09/27 20:50:30;;;;;;;6.90;5.87;;;18.50;99.90;;;;;;6073399;23;20492;-77
2023/09/27 20:53:12;;;;;;;4.80;4.30;;;18.60;99.90;;;;;;6119579;23;20377;-78
2023/09/27 20:55:39;;;;;;;5.90;5.07;;;18.60;99.90;;;;;;6071714;23;20396;-76
2023/09/27 20:58:06;;;;;;;5.70;5.10;;;18.60;99.90;;;;;;6116692;23;20380;-76
2023/09/27 21:00:36;;;;;;;4.30;3.90;;;18.60;99.90;;;;;;6094038;23;20383;-74
2023/09/27 21:03:05;;;;;;;4.60;4.20;;;18.50;99.90;;;;;;6117266;23;20405;-75
2023/09/27 21:05:32;;;;;;;4.27;3.73;;;18.50;99.90;;;;;;6091308;23;20547;-75
2023/09/27 21:07:59;;;;;;;4.37;3.83;;;18.50;99.90;;;;;;6091634;23;20396;-77
2023/09/27 21:10:24;;;;;;;4.17;3.77;;;18.50;99.90;;;;;;6091825;23;20380;-75
2023/09/27 21:12:51;;;;;;;4.47;4.07;;;18.50;99.90;;;;;;6090148;23;20619;-77
2023/09/27 21:15:17;;;;;;;5.13;4.63;;;18.50;99.90;;;;;;6115587;23;20507;-75
2023/09/27 21:17:44;;;;;;;5.30;4.83;;;18.50;99.90;;;;;;6118071;23;20391;-78
2023/09/27 21:20:12;;;;;;;4.70;4.30;;;18.50;99.90;;;;;;6095135;23;20148;-75
2023/09/27 21:22:38;;;;;;;6.27;4.90;;;18.50;99.90;;;;;;6070637;23;20392;-77
2023/09/27 21:25:04;;;;;;;14.97;5.57;;;18.60;99.90;;;;;;6094038;23;20504;-75
2023/09/27 21:27:29;;;;;;;6.97;5.70;;;18.60;99.90;;;;;;6095309;23;20224;-77
2023/09/27 21:29:55;;;;;;;7.33;4.93;;;18.60;99.90;;;;;;6118878;23;20353;-76
2023/09/27 21:32:21;;;;;;;5.57;4.63;;;18.60;99.90;;;;;;6119213;23;20140;-77
2023/09/27 21:34:49;;;;;;;4.93;4.50;;;18.60;99.90;;;;;;6094703;23;20442;-73
2023/09/27 21:37:15;;;;;;;5.27;4.77;;;18.60;99.90;;;;;;6093993;23;20176;-77
2023/09/27 21:39:41;;;;;;;5.47;4.97;;;18.60;99.90;;;;;;6092348;23;20684;-76
2023/09/27 21:42:09;;;;;;;5.23;4.73;;;18.60;99.90;;;;;;6091782;23;20397;-75
2023/09/27 21:44:35;;;;;;;5.83;5.23;;;18.60;99.90;;;;;;6115585;23;20401;-74
2023/09/27 21:47:01;;;;;;;5.57;4.97;;;18.60;99.90;;;;;;6116111;23;20427;-75
2023/09/27 21:49:29;;;;;;;6.23;4.70;;;18.60;99.90;;;;;;6117750;23;20175;-78
2023/09/27 21:51:55;;;;;;;6.53;5.17;;;18.60;99.90;;;;;;6092728;23;20431;-75
2023/09/27 21:54:20;;;;;;;4.90;4.50;;;18.60;99.90;;;;;;6115001;23;20388;-75
2023/09/27 21:56:46;;;;;;;5.67;5.17;;;18.50;99.90;;;;;;6090570;23;20515;-76
2023/09/27 21:59:13;;;;;;;5.40;4.90;;;18.50;99.90;;;;;;6090346;23;20152;-75
2023/09/27 22:01:39;;;;;;;4.57;4.03;;;18.50;99.90;;;;;;6114194;23;20424;-77